If you wish to contribute or participate in the discussions about articles you are invited to join SKYbrary as a registered user

 Actions

Pamplona Airport

From SKYbrary Wiki

LEPP
Airport
ICAO: LEPP – IATA: PNA
Summary
Name Pamplona Airport
Region Europe
Territory Spain ES.gif
Location
Serving Pamplona
Elevation 458.419 m
1,504 ft
1,504 ft458.419 m
Type medium airport
Coordinates 42° 46' 12.14" N, 1° 38' 46.79" W
Runways
Designator Length Width Surface ROPS
15/33 0 m0 ft
0 m0 ft
UNK yes/yes
16/34 2207 m7,240.814 ft
45 m147.638 ft
ASP no/no


METAR
Observation LEPP 260530Z 16002KT CAVOK 16/15 Q1017
Station Pamplona / Noain
Date/Time 26 August 2019 05:30:00
Wind direction 160°
Wind speed 02 kts
Lowest cloud amount clouds and visibility OK
Temperature 16°C
Dew point 15°C
Humidity 93%
QNH 1017 hPa
Weather condition n/a